sensor_id;sensor_type;location;lat;lon;timestamp;pressure;altitude;pressure_sealevel;temperature
18782;BMP180;9519;51.890;8.970;2023-06-14T00:00:31;99427.00;;;16.90
18782;BMP180;9519;51.890;8.970;2023-06-14T00:05:35;99431.00;;;16.80
18782;BMP180;9519;51.890;8.970;2023-06-14T00:10:41;99425.00;;;16.70
18782;BMP180;9519;51.890;8.970;2023-06-14T00:15:46;99429.00;;;16.70
18782;BMP180;9519;51.890;8.970;2023-06-14T00:20:48;99434.00;;;16.60
18782;BMP180;9519;51.890;8.970;2023-06-14T00:25:50;99441.00;;;16.60
18782;BMP180;9519;51.890;8.970;2023-06-14T00:30:53;99437.00;;;16.50
18782;BMP180;9519;51.890;8.970;2023-06-14T00:35:55;99447.00;;;16.50
18782;BMP180;9519;51.890;8.970;2023-06-14T00:40:57;99448.00;;;16.40
18782;BMP180;9519;51.890;8.970;2023-06-14T00:46:01;99450.00;;;16.30
18782;BMP180;9519;51.890;8.970;2023-06-14T00:51:03;99446.00;;;16.20
18782;BMP180;9519;51.890;8.970;2023-06-14T00:56:05;99451.00;;;16.10
18782;BMP180;9519;51.890;8.970;2023-06-14T01:01:09;99442.00;;;16.00
18782;BMP180;9519;51.890;8.970;2023-06-14T01:06:23;99460.00;;;15.80
18782;BMP180;9519;51.890;8.970;2023-06-14T01:11:40;99454.00;;;15.70
18782;BMP180;9519;51.890;8.970;2023-06-14T01:16:45;99454.00;;;15.50
18782;BMP180;9519;51.890;8.970;2023-06-14T01:21:48;99462.00;;;15.40
18782;BMP180;9519;51.890;8.970;2023-06-14T01:26:55;99465.00;;;15.30
18782;BMP180;9519;51.890;8.970;2023-06-14T01:31:58;99457.00;;;15.20
18782;BMP180;9519;51.890;8.970;2023-06-14T01:37:02;99460.00;;;15.20
18782;BMP180;9519;51.890;8.970;2023-06-14T01:42:06;99461.00;;;15.10
18782;BMP180;9519;51.890;8.970;2023-06-14T01:47:09;99463.00;;;15.00
18782;BMP180;9519;51.890;8.970;2023-06-14T01:52:12;99468.00;;;14.90
18782;BMP180;9519;51.890;8.970;2023-06-14T01:57:15;99474.00;;;14.80
18782;BMP180;9519;51.890;8.970;2023-06-14T02:02:17;99476.00;;;14.70
18782;BMP180;9519;51.890;8.970;2023-06-14T02:07:20;99477.00;;;14.70
18782;BMP180;9519;51.890;8.970;2023-06-14T02:12:23;99481.00;;;14.60
18782;BMP180;9519;51.890;8.970;2023-06-14T02:17:25;99472.00;;;14.50
18782;BMP180;9519;51.890;8.970;2023-06-14T02:22:27;99492.00;;;14.40
18782;BMP180;9519;51.890;8.970;2023-06-14T02:27:32;99499.00;;;14.30
18782;BMP180;9519;51.890;8.970;2023-06-14T02:32:34;99502.00;;;14.20
18782;BMP180;9519;51.890;8.970;2023-06-14T02:37:36;99500.00;;;14.10
18782;BMP180;9519;51.890;8.970;2023-06-14T02:42:40;99502.00;;;14.00
18782;BMP180;9519;51.890;8.970;2023-06-14T02:47:42;99506.00;;;13.90
18782;BMP180;9519;51.890;8.970;2023-06-14T02:52:44;99516.00;;;13.80
18782;BMP180;9519;51.890;8.970;2023-06-14T02:57:47;99508.00;;;13.70
18782;BMP180;9519;51.890;8.970;2023-06-14T03:02:50;99513.00;;;13.70
18782;BMP180;9519;51.890;8.970;2023-06-14T03:07:52;99520.00;;;13.60
18782;BMP180;9519;51.890;8.970;2023-06-14T03:12:57;99517.00;;;13.60
18782;BMP180;9519;51.890;8.970;2023-06-14T03:17:59;99517.00;;;13.50
18782;BMP180;9519;51.890;8.970;2023-06-14T03:23:02;99518.00;;;13.50
18782;BMP180;9519;51.890;8.970;2023-06-14T03:28:07;99529.00;;;13.50
18782;BMP180;9519;51.890;8.970;2023-06-14T03:33:09;99524.00;;;13.50
18782;BMP180;9519;51.890;8.970;2023-06-14T03:38:11;99528.00;;;13.50
18782;BMP180;9519;51.890;8.970;2023-06-14T03:43:14;99531.00;;;13.50
18782;BMP180;9519;51.890;8.970;2023-06-14T03:48:16;99538.00;;;13.50
18782;BMP180;9519;51.890;8.970;2023-06-14T03:53:18;99543.00;;;13.60
18782;BMP180;9519;51.890;8.970;2023-06-14T03:58:22;99549.00;;;13.60
18782;BMP180;9519;51.890;8.970;2023-06-14T04:03:24;99555.00;;;13.70
18782;BMP180;9519;51.890;8.970;2023-06-14T04:08:30;99556.00;;;13.80
18782;BMP180;9519;51.890;8.970;2023-06-14T04:13:33;99563.00;;;13.90
18782;BMP180;9519;51.890;8.970;2023-06-14T04:18:36;99572.00;;;13.90
18782;BMP180;9519;51.890;8.970;2023-06-14T04:23:38;99581.00;;;13.90
18782;BMP180;9519;51.890;8.970;2023-06-14T04:28:45;99589.00;;;14.00
18782;BMP180;9519;51.890;8.970;2023-06-14T04:33:47;99583.00;;;14.10
18782;BMP180;9519;51.890;8.970;2023-06-14T04:38:51;99599.00;;;14.10
18782;BMP180;9519;51.890;8.970;2023-06-14T04:43:56;99604.00;;;14.10
18782;BMP180;9519;51.890;8.970;2023-06-14T04:48:59;99604.00;;;14.20
18782;BMP180;9519;51.890;8.970;2023-06-14T04:54:03;99607.00;;;14.30
18782;BMP180;9519;51.890;8.970;2023-06-14T04:59:07;99606.00;;;14.40
18782;BMP180;9519;51.890;8.970;2023-06-14T05:04:09;99601.00;;;14.40
18782;BMP180;9519;51.890;8.970;2023-06-14T05:09:13;99602.00;;;14.50
18782;BMP180;9519;51.890;8.970;2023-06-14T05:14:17;99606.00;;;14.60
18782;BMP180;9519;51.890;8.970;2023-06-14T05:19:19;99599.00;;;14.70
18782;BMP180;9519;51.890;8.970;2023-06-14T05:24:21;99609.00;;;14.80
18782;BMP180;9519;51.890;8.970;2023-06-14T05:29:24;99614.00;;;14.80
18782;BMP180;9519;51.890;8.970;2023-06-14T05:34:26;99611.00;;;14.90
18782;BMP180;9519;51.890;8.970;2023-06-14T05:39:28;99613.00;;;14.90
18782;BMP180;9519;51.890;8.970;2023-06-14T05:44:32;99621.00;;;15.00
18782;BMP180;9519;51.890;8.970;2023-06-14T05:49:34;99631.00;;;15.00
18782;BMP180;9519;51.890;8.970;2023-06-14T05:54:36;99623.00;;;15.10
18782;BMP180;9519;51.890;8.970;2023-06-14T05:59:40;99641.00;;;15.10
18782;BMP180;9519;51.890;8.970;2023-06-14T06:04:42;99641.00;;;15.20
18782;BMP180;9519;51.890;8.970;2023-06-14T06:09:44;99644.00;;;15.20
18782;BMP180;9519;51.890;8.970;2023-06-14T06:14:48;99650.00;;;15.40
18782;BMP180;9519;51.890;8.970;2023-06-14T06:19:50;99647.00;;;15.50
18782;BMP180;9519;51.890;8.970;2023-06-14T06:24:52;99648.00;;;15.60
18782;BMP180;9519;51.890;8.970;2023-06-14T06:29:55;99651.00;;;15.60
18782;BMP180;9519;51.890;8.970;2023-06-14T06:34:57;99648.00;;;15.70
18782;BMP180;9519;51.890;8.970;2023-06-14T06:40:00;99650.00;;;15.90
18782;BMP180;9519;51.890;8.970;2023-06-14T06:45:05;99643.00;;;16.00
18782;BMP180;9519;51.890;8.970;2023-06-14T06:50:08;99647.00;;;16.10
18782;BMP180;9519;51.890;8.970;2023-06-14T06:55:10;99647.00;;;16.30
18782;BMP180;9519;51.890;8.970;2023-06-14T07:00:16;99646.00;;;16.40
18782;BMP180;9519;51.890;8.970;2023-06-14T07:05:18;99643.00;;;16.50
18782;BMP180;9519;51.890;8.970;2023-06-14T07:10:20;99638.00;;;16.60
18782;BMP180;9519;51.890;8.970;2023-06-14T07:15:24;99640.00;;;16.80
18782;BMP180;9519;51.890;8.970;2023-06-14T07:20:26;99628.00;;;17.00
18782;BMP180;9519;51.890;8.970;2023-06-14T07:25:29;99652.00;;;17.10
18782;BMP180;9519;51.890;8.970;2023-06-14T07:30:32;99646.00;;;17.20
18782;BMP180;9519;51.890;8.970;2023-06-14T07:35:34;99645.00;;;17.40
18782;BMP180;9519;51.890;8.970;2023-06-14T07:40:36;99648.00;;;17.60
18782;BMP180;9519;51.890;8.970;2023-06-14T07:45:40;99638.00;;;17.70
18782;BMP180;9519;51.890;8.970;2023-06-14T07:50:42;99644.00;;;17.80
18782;BMP180;9519;51.890;8.970;2023-06-14T07:55:44;99653.00;;;18.00
18782;BMP180;9519;51.890;8.970;2023-06-14T08:00:49;99642.00;;;18.10
18782;BMP180;9519;51.890;8.970;2023-06-14T08:05:52;99654.00;;;18.20
18782;BMP180;9519;51.890;8.970;2023-06-14T08:10:54;99653.00;;;18.30
18782;BMP180;9519;51.890;8.970;2023-06-14T08:15:58;99651.00;;;18.50
18782;BMP180;9519;51.890;8.970;2023-06-14T08:21:02;99639.00;;;18.60
18782;BMP180;9519;51.890;8.970;2023-06-14T08:26:04;99653.00;;;18.60
18782;BMP180;9519;51.890;8.970;2023-06-14T08:31:09;99655.00;;;18.70
18782;BMP180;9519;51.890;8.970;2023-06-14T08:36:11;99654.00;;;18.80
18782;BMP180;9519;51.890;8.970;2023-06-14T08:41:21;99649.00;;;19.00
18782;BMP180;9519;51.890;8.970;2023-06-14T08:46:26;99651.00;;;19.30
18782;BMP180;9519;51.890;8.970;2023-06-14T08:51:31;99647.00;;;19.50
18782;BMP180;9519;51.890;8.970;2023-06-14T08:56:38;99634.00;;;19.70
18782;BMP180;9519;51.890;8.970;2023-06-14T09:01:44;99646.00;;;19.80
18782;BMP180;9519;51.890;8.970;2023-06-14T09:06:48;99645.00;;;19.90
18782;BMP180;9519;51.890;8.970;2023-06-14T09:11:53;99640.00;;;20.00
18782;BMP180;9519;51.890;8.970;2023-06-14T09:16:56;99647.00;;;20.10
18782;BMP180;9519;51.890;8.970;2023-06-14T09:21:59;99653.00;;;20.30
18782;BMP180;9519;51.890;8.970;2023-06-14T09:27:01;99638.00;;;20.40
18782;BMP180;9519;51.890;8.970;2023-06-14T09:32:06;99637.00;;;20.50
18782;BMP180;9519;51.890;8.970;2023-06-14T09:37:10;99642.00;;;20.60
18782;BMP180;9519;51.890;8.970;2023-06-14T09:42:16;99647.00;;;20.70
18782;BMP180;9519;51.890;8.970;2023-06-14T09:47:22;99647.00;;;20.80
18782;BMP180;9519;51.890;8.970;2023-06-14T09:52:25;99634.00;;;20.90
18782;BMP180;9519;51.890;8.970;2023-06-14T09:57:29;99647.00;;;21.00
18782;BMP180;9519;51.890;8.970;2023-06-14T10:02:37;99659.00;;;21.00
18782;BMP180;9519;51.890;8.970;2023-06-14T10:07:43;99649.00;;;21.10
18782;BMP180;9519;51.890;8.970;2023-06-14T10:12:46;99647.00;;;21.20
18782;BMP180;9519;51.890;8.970;2023-06-14T10:17:55;99641.00;;;21.30
18782;BMP180;9519;51.890;8.970;2023-06-14T10:23:08;99623.00;;;21.30
18782;BMP180;9519;51.890;8.970;2023-06-14T10:28:17;99617.00;;;21.30
18782;BMP180;9519;51.890;8.970;2023-06-14T10:33:21;99628.00;;;21.30
18782;BMP180;9519;51.890;8.970;2023-06-14T10:38:30;99626.00;;;21.30
18782;BMP180;9519;51.890;8.970;2023-06-14T10:43:34;99629.00;;;21.30
18782;BMP180;9519;51.890;8.970;2023-06-14T10:48:40;99635.00;;;21.50
18782;BMP180;9519;51.890;8.970;2023-06-14T10:53:45;99624.00;;;21.60
18782;BMP180;9519;51.890;8.970;2023-06-14T10:58:47;99630.00;;;21.60
18782;BMP180;9519;51.890;8.970;2023-06-14T11:03:52;99606.00;;;21.40
18782;BMP180;9519;51.890;8.970;2023-06-14T11:09:41;99634.00;;;21.40
18782;BMP180;9519;51.890;8.970;2023-06-14T11:14:47;99615.00;;;21.40
18782;BMP180;9519;51.890;8.970;2023-06-14T11:20:07;99613.00;;;21.30
18782;BMP180;9519;51.890;8.970;2023-06-14T11:25:09;99613.00;;;21.30
18782;BMP180;9519;51.890;8.970;2023-06-14T11:30:14;99615.00;;;21.40
18782;BMP180;9519;51.890;8.970;2023-06-14T11:35:18;99613.00;;;21.40
18782;BMP180;9519;51.890;8.970;2023-06-14T11:40:24;99613.00;;;21.40
18782;BMP180;9519;51.890;8.970;2023-06-14T11:45:28;99603.00;;;21.50
18782;BMP180;9519;51.890;8.970;2023-06-14T11:50:32;99595.00;;;21.60
18782;BMP180;9519;51.890;8.970;2023-06-14T11:55:39;99606.00;;;21.40
18782;BMP180;9519;51.890;8.970;2023-06-14T12:00:48;99605.00;;;21.70
18782;BMP180;9519;51.890;8.970;2023-06-14T12:06:03;99607.00;;;21.90
18782;BMP180;9519;51.890;8.970;2023-06-14T12:11:06;99608.00;;;21.90
18782;BMP180;9519;51.890;8.970;2023-06-14T12:16:11;99591.00;;;22.00
18782;BMP180;9519;51.890;8.970;2023-06-14T12:21:14;99595.00;;;22.20
18782;BMP180;9519;51.890;8.970;2023-06-14T12:26:20;99584.00;;;22.30
18782;BMP180;9519;51.890;8.970;2023-06-14T12:31:22;99587.00;;;22.50
18782;BMP180;9519;51.890;8.970;2023-06-14T12:36:26;99580.00;;;22.80
18782;BMP180;9519;51.890;8.970;2023-06-14T12:41:29;99579.00;;;23.00
18782;BMP180;9519;51.890;8.970;2023-06-14T12:46:31;99586.00;;;22.90
18782;BMP180;9519;51.890;8.970;2023-06-14T12:51:35;99579.00;;;22.90
18782;BMP180;9519;51.890;8.970;2023-06-14T12:56:37;99575.00;;;23.20
18782;BMP180;9519;51.890;8.970;2023-06-14T13:01:39;99582.00;;;23.40
18782;BMP180;9519;51.890;8.970;2023-06-14T13:06:43;99570.00;;;23.50
18782;BMP180;9519;51.890;8.970;2023-06-14T13:11:45;99574.00;;;23.70
18782;BMP180;9519;51.890;8.970;2023-06-14T13:16:48;99582.00;;;23.50
18782;BMP180;9519;51.890;8.970;2023-06-14T13:21:52;99589.00;;;23.60
18782;BMP180;9519;51.890;8.970;2023-06-14T13:26:54;99574.00;;;23.90
18782;BMP180;9519;51.890;8.970;2023-06-14T13:31:57;99566.00;;;23.90
18782;BMP180;9519;51.890;8.970;2023-06-14T13:37:00;99566.00;;;23.80
18782;BMP180;9519;51.890;8.970;2023-06-14T13:42:03;99578.00;;;23.80
18782;BMP180;9519;51.890;8.970;2023-06-14T13:47:06;99580.00;;;23.80
18782;BMP180;9519;51.890;8.970;2023-06-14T13:52:10;99569.00;;;23.60
18782;BMP180;9519;51.890;8.970;2023-06-14T13:57:12;99569.00;;;23.70
18782;BMP180;9519;51.890;8.970;2023-06-14T14:02:14;99550.00;;;24.20
18782;BMP180;9519;51.890;8.970;2023-06-14T14:07:22;99549.00;;;24.50
18782;BMP180;9519;51.890;8.970;2023-06-14T14:12:28;99515.00;;;24.60
18782;BMP180;9519;51.890;8.970;2023-06-14T14:17:33;99536.00;;;24.70
18782;BMP180;9519;51.890;8.970;2023-06-14T14:22:36;99542.00;;;24.70
18782;BMP180;9519;51.890;8.970;2023-06-14T14:27:38;99541.00;;;24.90
18782;BMP180;9519;51.890;8.970;2023-06-14T14:32:41;99539.00;;;25.50
18782;BMP180;9519;51.890;8.970;2023-06-14T14:37:45;99548.00;;;25.80
18782;BMP180;9519;51.890;8.970;2023-06-14T14:42:47;99545.00;;;25.80
18782;BMP180;9519;51.890;8.970;2023-06-14T14:47:49;99549.00;;;25.40
18782;BMP180;9519;51.890;8.970;2023-06-14T14:52:53;99548.00;;;25.60
18782;BMP180;9519;51.890;8.970;2023-06-14T14:57:55;99538.00;;;26.30
18782;BMP180;9519;51.890;8.970;2023-06-14T15:02:57;99529.00;;;27.00
18782;BMP180;9519;51.890;8.970;2023-06-14T15:08:00;99548.00;;;26.50
18782;BMP180;9519;51.890;8.970;2023-06-14T15:13:02;99543.00;;;26.80
18782;BMP180;9519;51.890;8.970;2023-06-14T15:18:04;99538.00;;;27.20
18782;BMP180;9519;51.890;8.970;2023-06-14T15:23:08;99535.00;;;26.80
18782;BMP180;9519;51.890;8.970;2023-06-14T15:28:10;99554.00;;;26.10
18782;BMP180;9519;51.890;8.970;2023-06-14T15:33:12;99553.00;;;25.50
18782;BMP180;9519;51.890;8.970;2023-06-14T15:38:16;99552.00;;;26.10
18782;BMP180;9519;51.890;8.970;2023-06-14T15:43:18;99544.00;;;27.10
18782;BMP180;9519;51.890;8.970;2023-06-14T15:48:20;99525.00;;;27.70
18782;BMP180;9519;51.890;8.970;2023-06-14T15:53:24;99534.00;;;27.90
18782;BMP180;9519;51.890;8.970;2023-06-14T15:58:26;99523.00;;;28.50
18782;BMP180;9519;51.890;8.970;2023-06-14T16:03:28;99523.00;;;28.80
18782;BMP180;9519;51.890;8.970;2023-06-14T16:08:31;99521.00;;;29.30
18782;BMP180;9519;51.890;8.970;2023-06-14T16:13:33;99525.00;;;28.70
18782;BMP180;9519;51.890;8.970;2023-06-14T16:18:35;99518.00;;;28.90
18782;BMP180;9519;51.890;8.970;2023-06-14T16:23:39;99514.00;;;29.40
18782;BMP180;9519;51.890;8.970;2023-06-14T16:28:41;99502.00;;;29.90
18782;BMP180;9519;51.890;8.970;2023-06-14T16:33:43;99510.00;;;30.40
18782;BMP180;9519;51.890;8.970;2023-06-14T16:38:47;99517.00;;;30.20
18782;BMP180;9519;51.890;8.970;2023-06-14T16:43:49;99523.00;;;29.00
18782;BMP180;9519;51.890;8.970;2023-06-14T16:48:51;99539.00;;;28.10
18782;BMP180;9519;51.890;8.970;2023-06-14T16:53:55;99551.00;;;27.40
18782;BMP180;9519;51.890;8.970;2023-06-14T16:58:58;99563.00;;;26.50
18782;BMP180;9519;51.890;8.970;2023-06-14T17:04:00;99575.00;;;25.80
18782;BMP180;9519;51.890;8.970;2023-06-14T17:09:04;99566.00;;;25.60
18782;BMP180;9519;51.890;8.970;2023-06-14T17:14:06;99574.00;;;25.80
18782;BMP180;9519;51.890;8.970;2023-06-14T17:19:10;99567.00;;;25.80
18782;BMP180;9519;51.890;8.970;2023-06-14T17:24:13;99575.00;;;26.20
18782;BMP180;9519;51.890;8.970;2023-06-14T17:29:15;99572.00;;;26.50
18782;BMP180;9519;51.890;8.970;2023-06-14T17:34:18;99573.00;;;26.60
18782;BMP180;9519;51.890;8.970;2023-06-14T17:39:21;99569.00;;;27.00
18782;BMP180;9519;51.890;8.970;2023-06-14T17:44:23;99573.00;;;27.20
18782;BMP180;9519;51.890;8.970;2023-06-14T17:49:26;99563.00;;;27.00
18782;BMP180;9519;51.890;8.970;2023-06-14T17:54:29;99583.00;;;26.60
18782;BMP180;9519;51.890;8.970;2023-06-14T17:59:31;99570.00;;;26.20
18782;BMP180;9519;51.890;8.970;2023-06-14T18:04:33;99581.00;;;25.60
18782;BMP180;9519;51.890;8.970;2023-06-14T18:09:37;99586.00;;;25.20
18782;BMP180;9519;51.890;8.970;2023-06-14T18:14:39;99590.00;;;25.00
18782;BMP180;9519;51.890;8.970;2023-06-14T18:19:41;99594.00;;;24.80
18782;BMP180;9519;51.890;8.970;2023-06-14T18:24:46;99597.00;;;24.70
18782;BMP180;9519;51.890;8.970;2023-06-14T18:29:48;99591.00;;;24.50
18782;BMP180;9519;51.890;8.970;2023-06-14T18:34:50;99611.00;;;24.30
18782;BMP180;9519;51.890;8.970;2023-06-14T18:39:54;99595.00;;;24.10
18782;BMP180;9519;51.890;8.970;2023-06-14T18:44:56;99606.00;;;23.80
18782;BMP180;9519;51.890;8.970;2023-06-14T18:49:58;99603.00;;;23.40
18782;BMP180;9519;51.890;8.970;2023-06-14T18:55:02;99611.00;;;23.30
18782;BMP180;9519;51.890;8.970;2023-06-14T19:00:06;99609.00;;;23.20
18782;BMP180;9519;51.890;8.970;2023-06-14T19:05:09;99606.00;;;23.00
18782;BMP180;9519;51.890;8.970;2023-06-14T19:10:12;99619.00;;;22.80
18782;BMP180;9519;51.890;8.970;2023-06-14T19:15:14;99626.00;;;22.60
18782;BMP180;9519;51.890;8.970;2023-06-14T19:20:17;99625.00;;;22.30
18782;BMP180;9519;51.890;8.970;2023-06-14T19:25:20;99625.00;;;22.10
18782;BMP180;9519;51.890;8.970;2023-06-14T19:30:22;99640.00;;;21.80
18782;BMP180;9519;51.890;8.970;2023-06-14T19:35:24;99647.00;;;21.50
18782;BMP180;9519;51.890;8.970;2023-06-14T19:40:28;99648.00;;;21.20
18782;BMP180;9519;51.890;8.970;2023-06-14T19:45:30;99651.00;;;21.00
18782;BMP180;9519;51.890;8.970;2023-06-14T19:50:32;99666.00;;;20.80
18782;BMP180;9519;51.890;8.970;2023-06-14T19:55:37;99670.00;;;20.60
18782;BMP180;9519;51.890;8.970;2023-06-14T20:00:39;99680.00;;;20.30
18782;BMP180;9519;51.890;8.970;2023-06-14T20:05:41;99680.00;;;20.10
18782;BMP180;9519;51.890;8.970;2023-06-14T20:10:45;99687.00;;;20.00
18782;BMP180;9519;51.890;8.970;2023-06-14T20:15:47;99691.00;;;19.80
18782;BMP180;9519;51.890;8.970;2023-06-14T20:20:50;99696.00;;;19.70
18782;BMP180;9519;51.890;8.970;2023-06-14T20:25:53;99704.00;;;19.50
18782;BMP180;9519;51.890;8.970;2023-06-14T20:30:55;99704.00;;;19.30
18782;BMP180;9519;51.890;8.970;2023-06-14T20:35:58;99713.00;;;19.10
18782;BMP180;9519;51.890;8.970;2023-06-14T20:41:04;99710.00;;;19.00
18782;BMP180;9519;51.890;8.970;2023-06-14T20:46:06;99717.00;;;18.80
18782;BMP180;9519;51.890;8.970;2023-06-14T20:51:08;99717.00;;;18.60
18782;BMP180;9519;51.890;8.970;2023-06-14T20:56:12;99721.00;;;18.50
18782;BMP180;9519;51.890;8.970;2023-06-14T21:01:15;99723.00;;;18.30
18782;BMP180;9519;51.890;8.970;2023-06-14T21:06:18;99721.00;;;18.20
18782;BMP180;9519;51.890;8.970;2023-06-14T21:11:21;99740.00;;;18.10
18782;BMP180;9519;51.890;8.970;2023-06-14T21:16:23;99742.00;;;18.00
18782;BMP180;9519;51.890;8.970;2023-06-14T21:21:26;99729.00;;;17.80
18782;BMP180;9519;51.890;8.970;2023-06-14T21:26:29;99724.00;;;17.70
18782;BMP180;9519;51.890;8.970;2023-06-14T21:31:31;99729.00;;;17.70
18782;BMP180;9519;51.890;8.970;2023-06-14T21:36:33;99737.00;;;17.50
18782;BMP180;9519;51.890;8.970;2023-06-14T21:41:37;99735.00;;;17.20
18782;BMP180;9519;51.890;8.970;2023-06-14T21:46:39;99728.00;;;17.10
18782;BMP180;9519;51.890;8.970;2023-06-14T21:51:41;99739.00;;;17.00
18782;BMP180;9519;51.890;8.970;2023-06-14T21:56:45;99738.00;;;16.90
18782;BMP180;9519;51.890;8.970;2023-06-14T22:01:47;99733.00;;;16.80
18782;BMP180;9519;51.890;8.970;2023-06-14T22:06:49;99748.00;;;16.70
18782;BMP180;9519;51.890;8.970;2023-06-14T22:11:52;99754.00;;;16.60
18782;BMP180;9519;51.890;8.970;2023-06-14T22:16:57;99753.00;;;16.50
18782;BMP180;9519;51.890;8.970;2023-06-14T22:21:59;99749.00;;;16.40
18782;BMP180;9519;51.890;8.970;2023-06-14T22:27:05;99745.00;;;16.30
18782;BMP180;9519;51.890;8.970;2023-06-14T22:32:09;99758.00;;;16.20
18782;BMP180;9519;51.890;8.970;2023-06-14T22:37:11;99750.00;;;16.10
18782;BMP180;9519;51.890;8.970;2023-06-14T22:42:16;99755.00;;;16.00
18782;BMP180;9519;51.890;8.970;2023-06-14T22:47:21;99767.00;;;15.90
18782;BMP180;9519;51.890;8.970;2023-06-14T22:52:24;99759.00;;;15.80
18782;BMP180;9519;51.890;8.970;2023-06-14T22:57:29;99770.00;;;15.80
18782;BMP180;9519;51.890;8.970;2023-06-14T23:02:31;99765.00;;;15.70
18782;BMP180;9519;51.890;8.970;2023-06-14T23:07:33;99757.00;;;15.60
18782;BMP180;9519;51.890;8.970;2023-06-14T23:12:38;99758.00;;;15.50
18782;BMP180;9519;51.890;8.970;2023-06-14T23:17:41;99775.00;;;15.50
18782;BMP180;9519;51.890;8.970;2023-06-14T23:22:44;99759.00;;;15.40
18782;BMP180;9519;51.890;8.970;2023-06-14T23:27:47;99774.00;;;15.30
18782;BMP180;9519;51.890;8.970;2023-06-14T23:32:49;99770.00;;;15.20
18782;BMP180;9519;51.890;8.970;2023-06-14T23:37:51;99775.00;;;15.00
18782;BMP180;9519;51.890;8.970;2023-06-14T23:42:56;99775.00;;;14.90
18782;BMP180;9519;51.890;8.970;2023-06-14T23:48:06;99770.00;;;14.70
18782;BMP180;9519;51.890;8.970;2023-06-14T23:53:08;99772.00;;;14.70
18782;BMP180;9519;51.890;8.970;2023-06-14T23:58:12;99743.00;;;14.70
